sensor_id;sensor_type;location;lat;lon;timestamp;pressure;altitude;pressure_sealevel;temperature;humidity
78857;BME280;68207;50.078;19.936;2023-04-06T18:10:54;99142.48;;;0.00;86.31
78857;BME280;68207;50.078;19.936;2023-04-06T18:14:11;99146.48;;;0.08;86.08
78857;BME280;68207;50.078;19.936;2023-04-06T18:16:40;99146.36;;;0.20;86.07
78857;BME280;68207;50.078;19.936;2023-04-06T18:19:32;99145.98;;;0.30;85.86
78857;BME280;68207;50.078;19.936;2023-04-06T18:21:59;99147.04;;;0.40;85.17
78857;BME280;68207;50.078;19.936;2023-04-06T18:24:28;99144.63;;;0.53;85.36
78857;BME280;68207;50.078;19.936;2023-04-06T18:26:54;99140.74;;;0.64;84.59
78857;BME280;68207;50.078;19.936;2023-04-06T18:29:20;99142.61;;;0.72;84.65
78857;BME280;68207;50.078;19.936;2023-04-06T18:31:45;99144.20;;;0.77;84.53
78857;BME280;68207;50.078;19.936;2023-04-06T18:34:15;99137.15;;;0.80;84.51
78857;BME280;68207;50.078;19.936;2023-04-06T18:36:44;99137.75;;;0.87;84.24
78857;BME280;68207;50.078;19.936;2023-04-06T18:39:09;99138.03;;;0.90;83.76
78857;BME280;68207;50.078;19.936;2023-04-06T18:41:35;99134.81;;;0.94;83.77
78857;BME280;68207;50.078;19.936;2023-04-06T18:44:02;99132.55;;;0.99;83.51
78857;BME280;68207;50.078;19.936;2023-04-06T18:46:27;99137.38;;;1.02;83.58
78857;BME280;68207;50.078;19.936;2023-04-06T18:48:53;99134.20;;;1.05;83.06
78857;BME280;68207;50.078;19.936;2023-04-06T18:51:18;99132.21;;;1.11;83.26
78857;BME280;68207;50.078;19.936;2023-04-06T18:53:44;99131.65;;;1.14;82.86
78857;BME280;68207;50.078;19.936;2023-04-06T18:56:14;99128.13;;;1.15;82.97
78857;BME280;68207;50.078;19.936;2023-04-06T18:58:40;99127.67;;;1.16;82.66
78857;BME280;68207;50.078;19.936;2023-04-06T19:01:07;99123.14;;;1.16;82.82
78857;BME280;68207;50.078;19.936;2023-04-06T19:03:32;99123.29;;;1.21;82.78
78857;BME280;68207;50.078;19.936;2023-04-06T19:05:57;99123.81;;;1.26;82.34
78857;BME280;68207;50.078;19.936;2023-04-06T19:08:23;99123.11;;;1.26;82.35
78857;BME280;68207;50.078;19.936;2023-04-06T19:10:48;99122.49;;;1.23;82.21
78857;BME280;68207;50.078;19.936;2023-04-06T19:13:13;99120.02;;;1.23;82.18
78857;BME280;68207;50.078;19.936;2023-04-06T19:15:39;99116.28;;;1.24;82.18
78857;BME280;68207;50.078;19.936;2023-04-06T19:18:08;99114.71;;;1.27;81.86
78857;BME280;68207;50.078;19.936;2023-04-06T19:20:33;99116.56;;;1.30;82.11
78857;BME280;68207;50.078;19.936;2023-04-06T19:22:59;99109.61;;;1.32;81.97
78857;BME280;68207;50.078;19.936;2023-04-06T19:25:25;99107.85;;;1.32;81.76
78857;BME280;68207;50.078;19.936;2023-04-06T19:27:51;99107.92;;;1.31;81.84
78857;BME280;68207;50.078;19.936;2023-04-06T19:30:16;99105.38;;;1.30;81.67
78857;BME280;68207;50.078;19.936;2023-04-06T19:32:44;99100.28;;;1.29;81.86
78857;BME280;68207;50.078;19.936;2023-04-06T19:35:10;99100.85;;;1.28;81.55
78857;BME280;68207;50.078;19.936;2023-04-06T19:37:36;99104.09;;;1.29;81.73
78857;BME280;68207;50.078;19.936;2023-04-06T19:40:02;99101.67;;;1.26;81.61
78857;BME280;68207;50.078;19.936;2023-04-06T19:42:32;99099.63;;;1.23;81.72
78857;BME280;68207;50.078;19.936;2023-04-06T19:44:57;99101.53;;;1.19;81.81
78857;BME280;68207;50.078;19.936;2023-04-06T19:47:25;99094.73;;;1.14;81.93
78857;BME280;68207;50.078;19.936;2023-04-06T19:49:51;99098.14;;;1.15;82.21
78857;BME280;68207;50.078;19.936;2023-04-06T19:52:16;99098.06;;;1.16;82.38
78857;BME280;68207;50.078;19.936;2023-04-06T19:54:45;99095.77;;;1.15;82.32
78857;BME280;68207;50.078;19.936;2023-04-06T19:57:12;99094.64;;;1.11;82.41
78857;BME280;68207;50.078;19.936;2023-04-06T19:59:37;99092.83;;;1.07;82.57
78857;BME280;68207;50.078;19.936;2023-04-06T20:02:03;99094.64;;;1.04;82.88
78857;BME280;68207;50.078;19.936;2023-04-06T20:04:51;99092.02;;;1.04;82.83
78857;BME280;68207;50.078;19.936;2023-04-06T20:07:16;99094.27;;;1.04;82.95
78857;BME280;68207;50.078;19.936;2023-04-06T20:10:03;99094.10;;;1.04;82.68
78857;BME280;68207;50.078;19.936;2023-04-06T20:12:29;99093.85;;;1.00;83.21
78857;BME280;68207;50.078;19.936;2023-04-06T20:14:55;99093.27;;;0.96;83.22
78857;BME280;68207;50.078;19.936;2023-04-06T20:17:31;99097.23;;;0.97;83.05
78857;BME280;68207;50.078;19.936;2023-04-06T20:19:56;99096.27;;;1.00;82.94
78857;BME280;68207;50.078;19.936;2023-04-06T20:22:22;99098.08;;;1.04;82.83
78857;BME280;68207;50.078;19.936;2023-04-06T20:24:47;99095.15;;;1.04;83.34
78857;BME280;68207;50.078;19.936;2023-04-06T20:27:33;99094.30;;;1.01;83.00
78857;BME280;68207;50.078;19.936;2023-04-06T20:29:58;99087.61;;;0.97;83.41
78857;BME280;68207;50.078;19.936;2023-04-06T20:32:24;99093.42;;;0.96;83.29
78857;BME280;68207;50.078;19.936;2023-04-06T20:34:50;99087.45;;;0.97;83.22
78857;BME280;68207;50.078;19.936;2023-04-06T20:37:31;99086.10;;;0.99;83.15
78857;BME280;68207;50.078;19.936;2023-04-06T20:39:57;99083.47;;;0.97;83.25
78857;BME280;68207;50.078;19.936;2023-04-06T20:42:22;99083.80;;;0.95;83.66
78857;BME280;68207;50.078;19.936;2023-04-06T20:44:48;99079.97;;;0.92;83.50
78857;BME280;68207;50.078;19.936;2023-04-06T20:47:15;99079.77;;;0.90;83.73
78857;BME280;68207;50.078;19.936;2023-04-06T20:49:41;99079.10;;;0.90;83.69
78857;BME280;68207;50.078;19.936;2023-04-06T20:52:09;99074.30;;;0.89;83.74
78857;BME280;68207;50.078;19.936;2023-04-06T20:54:47;99069.88;;;0.87;83.69
78857;BME280;68207;50.078;19.936;2023-04-06T21:00:08;99064.45;;;0.85;84.13
78857;BME280;68207;50.078;19.936;2023-04-06T21:02:34;99063.13;;;0.86;84.33
78857;BME280;68207;50.078;19.936;2023-04-06T21:05:27;99068.73;;;0.86;84.17
78857;BME280;68207;50.078;19.936;2023-04-06T21:07:59;99068.60;;;0.86;83.97
78857;BME280;68207;50.078;19.936;2023-04-06T21:10:48;99067.38;;;0.83;84.08
78857;BME280;68207;50.078;19.936;2023-04-06T21:13:13;99068.17;;;0.80;84.07
78857;BME280;68207;50.078;19.936;2023-04-06T21:15:38;99065.42;;;0.79;84.56
78857;BME280;68207;50.078;19.936;2023-04-06T21:18:05;99068.66;;;0.78;84.49
78857;BME280;68207;50.078;19.936;2023-04-06T21:20:31;99068.54;;;0.77;84.65
78857;BME280;68207;50.078;19.936;2023-04-06T21:22:56;99064.45;;;0.76;84.54
78857;BME280;68207;50.078;19.936;2023-04-06T21:25:21;99062.81;;;0.77;84.46
78857;BME280;68207;50.078;19.936;2023-04-06T21:27:50;99060.77;;;0.79;84.52
78857;BME280;68207;50.078;19.936;2023-04-06T21:30:19;99058.98;;;0.79;84.45
78857;BME280;68207;50.078;19.936;2023-04-06T21:32:44;99051.09;;;0.80;84.51
78857;BME280;68207;50.078;19.936;2023-04-06T21:35:41;99052.76;;;0.81;84.32
78857;BME280;68207;50.078;19.936;2023-04-06T21:38:09;99050.20;;;0.83;84.42
78857;BME280;68207;50.078;19.936;2023-04-06T21:40:53;99048.27;;;0.83;84.67
78857;BME280;68207;50.078;19.936;2023-04-06T21:43:18;99045.19;;;0.85;84.51
78857;BME280;68207;50.078;19.936;2023-04-06T21:45:57;99047.03;;;0.88;84.41
78857;BME280;68207;50.078;19.936;2023-04-06T21:48:23;99041.84;;;0.88;84.51
78857;BME280;68207;50.078;19.936;2023-04-06T21:50:48;99039.75;;;0.88;84.32
78857;BME280;68207;50.078;19.936;2023-04-06T21:53:16;99042.86;;;0.86;84.41
78857;BME280;68207;50.078;19.936;2023-04-06T21:58:27;99036.70;;;0.87;84.16
78857;BME280;68207;50.078;19.936;2023-04-06T22:01:13;99037.52;;;0.90;84.49
78857;BME280;68207;50.078;19.936;2023-04-06T22:03:42;99036.23;;;0.91;84.19
78857;BME280;68207;50.078;19.936;2023-04-06T22:06:10;99033.53;;;0.93;84.40
78857;BME280;68207;50.078;19.936;2023-04-06T22:08:47;99035.36;;;0.91;83.91
78857;BME280;68207;50.078;19.936;2023-04-06T22:11:18;99033.42;;;0.91;84.29
78857;BME280;68207;50.078;19.936;2023-04-06T22:13:44;99029.94;;;0.94;84.15
78857;BME280;68207;50.078;19.936;2023-04-06T22:16:09;99020.45;;;0.93;84.25
78857;BME280;68207;50.078;19.936;2023-04-06T22:18:35;99018.98;;;0.94;84.11
78857;BME280;68207;50.078;19.936;2023-04-06T22:21:01;99016.27;;;0.93;84.07
78857;BME280;68207;50.078;19.936;2023-04-06T22:23:29;99015.86;;;0.91;84.17
78857;BME280;68207;50.078;19.936;2023-04-06T22:25:56;99014.52;;;0.93;84.31
78857;BME280;68207;50.078;19.936;2023-04-06T22:28:29;99018.70;;;0.93;84.28
78857;BME280;68207;50.078;19.936;2023-04-06T22:30:55;99013.91;;;0.92;84.30
78857;BME280;68207;50.078;19.936;2023-04-06T22:33:23;99009.59;;;0.89;84.53
78857;BME280;68207;50.078;19.936;2023-04-06T22:36:08;99010.63;;;0.89;84.24
78857;BME280;68207;50.078;19.936;2023-04-06T22:38:34;99004.54;;;0.92;84.37
78857;BME280;68207;50.078;19.936;2023-04-06T22:41:00;99004.05;;;0.93;84.11
78857;BME280;68207;50.078;19.936;2023-04-06T22:43:30;99004.01;;;0.94;84.23
78857;BME280;68207;50.078;19.936;2023-04-06T22:46:20;99001.39;;;0.94;84.06
78857;BME280;68207;50.078;19.936;2023-04-06T22:49:00;98999.41;;;0.93;84.13
78857;BME280;68207;50.078;19.936;2023-04-06T22:51:38;98994.48;;;0.96;83.80
78857;BME280;68207;50.078;19.936;2023-04-06T22:54:07;98991.75;;;0.98;83.89
78857;BME280;68207;50.078;19.936;2023-04-06T22:56:41;98990.77;;;0.97;84.02
78857;BME280;68207;50.078;19.936;2023-04-06T22:59:07;98990.94;;;0.94;83.99
78857;BME280;68207;50.078;19.936;2023-04-06T23:01:32;98982.91;;;0.92;84.21
78857;BME280;68207;50.078;19.936;2023-04-06T23:04:18;98980.02;;;0.94;83.99
78857;BME280;68207;50.078;19.936;2023-04-06T23:06:44;98978.08;;;0.97;84.10
78857;BME280;68207;50.078;19.936;2023-04-06T23:11:58;98978.59;;;0.94;83.95
78857;BME280;68207;50.078;19.936;2023-04-06T23:14:26;98973.80;;;0.93;84.21
78857;BME280;68207;50.078;19.936;2023-04-06T23:16:51;98974.93;;;0.95;84.13
78857;BME280;68207;50.078;19.936;2023-04-06T23:19:17;98973.52;;;0.97;84.27
78857;BME280;68207;50.078;19.936;2023-04-06T23:21:42;98969.74;;;0.96;84.19
78857;BME280;68207;50.078;19.936;2023-04-06T23:24:08;98972.25;;;0.98;83.99
78857;BME280;68207;50.078;19.936;2023-04-06T23:26:33;98968.92;;;0.96;83.96
78857;BME280;68207;50.078;19.936;2023-04-06T23:28:58;98968.08;;;0.93;84.14
78857;BME280;68207;50.078;19.936;2023-04-06T23:31:37;98964.02;;;0.94;84.27
78857;BME280;68207;50.078;19.936;2023-04-06T23:34:03;98970.09;;;0.96;84.50
78857;BME280;68207;50.078;19.936;2023-04-06T23:36:28;98964.73;;;0.96;84.31
78857;BME280;68207;50.078;19.936;2023-04-06T23:38:54;98956.61;;;0.93;84.21
78857;BME280;68207;50.078;19.936;2023-04-06T23:41:20;98953.24;;;0.89;84.50
78857;BME280;68207;50.078;19.936;2023-04-06T23:43:46;98949.64;;;0.90;84.40
78857;BME280;68207;50.078;19.936;2023-04-06T23:46:15;98953.31;;;0.93;84.53
78857;BME280;68207;50.078;19.936;2023-04-06T23:48:40;98950.15;;;0.93;84.44
78857;BME280;68207;50.078;19.936;2023-04-06T23:51:06;98948.48;;;0.92;84.22
78857;BME280;68207;50.078;19.936;2023-04-06T23:53:31;98945.16;;;0.93;84.28
78857;BME280;68207;50.078;19.936;2023-04-06T23:55:57;98941.50;;;0.93;84.14
78857;BME280;68207;50.078;19.936;2023-04-06T23:58:22;98946.26;;;0.94;84.27
